Time;durP1;ratioP1;P1;durP2;ratioP2;P2;SDS_P1;SDS_P2;PMS_P1;PMS_P2;Temp;Humidity;BMP_temperature;BMP_pressure;BME280_temperature;BME280_humidity;BME280_pressure;Samples;Min_cycle;Max_cycle;Signal;HPM_P1;HPM_P2
2023/07/06 00:01:45;;;;;;;7.13;5.97;;;;;;;-144.30;66.30;84344.97;5049594;28;20207;-51
2023/07/06 00:04:12;;;;;;;7.20;6.47;;;;;;;-144.30;66.61;84358.88;5049800;28;20589;-51
2023/07/06 00:06:39;;;;;;;7.25;6.45;;;;;;;-144.30;66.95;84342.97;5049644;28;20219;-50
2023/07/06 00:09:07;;;;;;;11.35;9.95;;;;;;;-144.30;67.05;84388.69;5049767;28;20604;-47
2023/07/06 00:11:36;;;;;;;7.63;7.13;;;;;;;-144.30;67.12;84358.88;5049604;28;20698;-49
2023/07/06 00:14:03;;;;;;;6.38;5.88;;;;;;;-144.30;67.32;84380.75;5049345;28;20240;-50
2023/07/06 00:16:31;;;;;;;6.63;5.60;;;;;;;-144.30;67.06;84247.59;5049906;28;20618;-48
2023/07/06 00:18:58;;;;;;;9.23;7.32;;;;;;;-144.30;66.81;84354.91;5061309;28;20334;-48
2023/07/06 00:21:25;;;;;;;6.80;6.10;;;;;;;-144.30;66.64;84335.03;5069633;28;20207;-50
2023/07/06 00:23:52;;;;;;;8.20;7.32;;;;;;;-144.30;66.58;84360.88;5069491;28;20192;-48
2023/07/06 00:26:21;;;;;;;7.22;6.60;;;;;;;-144.30;66.88;84317.16;5069399;28;20203;-48
2023/07/06 00:28:49;;;;;;;6.40;6.00;;;;;;;-144.30;66.85;84305.22;5068981;28;20227;-47
2023/07/06 00:31:21;;;;;;;8.07;7.38;;;;;;;-144.30;66.91;84339.00;5069319;28;20207;-49
2023/07/06 00:33:48;;;;;;;6.43;5.93;;;;;;;-144.30;66.32;84307.22;5068903;28;20274;-48
2023/07/06 00:36:16;;;;;;;8.65;6.03;;;;;;;-144.30;66.03;84319.13;5069573;28;20589;-48
2023/07/06 00:38:43;;;;;;;6.32;5.70;;;;;;;-144.30;65.44;84289.31;5069073;28;20203;-49
2023/07/06 00:41:10;;;;;;;7.90;7.18;;;;;;;-144.30;65.35;84342.97;5069233;28;20648;-49
2023/07/06 00:43:52;;;;;;;6.88;6.40;;;;;;;-144.30;65.25;84299.25;5069255;28;20727;-49
2023/07/06 00:46:20;;;;;;;6.57;6.07;;;;;;;-144.30;65.49;84329.06;5069330;28;20207;-48
2023/07/06 00:48:48;;;;;;;9.27;6.22;;;;;;;-144.30;65.57;84339.00;5068752;28;20235;-48
2023/07/06 00:51:21;;;;;;;7.93;5.43;;;;;;;-144.30;66.06;84348.94;5069238;28;20548;-50
2023/07/06 00:53:56;;;;;;;6.80;6.25;;;;;;;-144.30;66.17;84354.91;5068692;28;20210;-49
2023/07/06 00:56:27;;;;;;;6.82;6.20;;;;;;;-144.30;66.46;84350.94;5069177;28;20191;-48
2023/07/06 00:59:02;;;;;;;6.70;6.25;;;;;;;-144.30;66.56;84342.97;5068992;28;20281;-50
2023/07/06 01:01:32;;;;;;;6.40;5.85;;;;;;;-144.30;66.74;84386.72;5069026;28;20671;-49
2023/07/06 01:04:01;;;;;;;6.80;6.15;;;;;;;-144.30;66.42;84354.91;5068737;28;20199;-49
2023/07/06 01:06:34;;;;;;;7.18;6.47;;;;;;;-144.30;66.14;84376.78;5069097;28;20270;-48
2023/07/06 01:09:02;;;;;;;7.03;6.35;;;;;;;-144.30;66.44;84335.03;5068418;28;20365;-48
2023/07/06 01:11:30;;;;;;;6.80;6.15;;;;;;;-144.30;66.33;84380.75;5068816;28;20199;-48
2023/07/06 01:13:58;;;;;;;6.57;6.10;;;;;;;-144.30;66.24;84315.16;5068716;28;20206;-49
2023/07/06 01:16:32;;;;;;;6.70;5.38;;;;;;;-144.30;65.81;84307.22;5069138;28;20199;-47
2023/07/06 01:19:16;;;;;;;6.78;6.18;;;;;;;-144.30;65.50;84339.00;5068446;28;20714;-49
2023/07/06 01:21:49;;;;;;;7.47;6.88;;;;;;;-144.30;65.76;84382.72;5068718;28;20620;-49
2023/07/06 01:24:51;;;;;;;6.95;6.45;;;;;;;-144.30;65.62;84366.84;5072336;28;20207;-48
2023/07/06 01:27:43;;;;;;;7.32;5.40;;;;;;;-144.30;65.50;84339.00;5072907;28;20696;-49
2023/07/06 01:30:36;;;;;;;6.35;5.75;;;;;;;-144.30;65.28;84362.84;5072613;28;20200;-48
2023/07/06 01:33:08;;;;;;;6.82;6.00;;;;;;;-144.30;65.13;84356.91;5072645;28;20222;-49
2023/07/06 01:35:43;;;;;;;6.28;5.88;;;;;;;-144.30;64.69;84339.00;5072577;28;20200;-47
2023/07/06 01:38:11;;;;;;;6.10;5.47;;;;;;;-144.30;64.41;84358.88;5072488;28;20675;-49
2023/07/06 01:40:38;;;;;;;6.10;5.60;;;;;;;-144.30;64.79;84358.88;5072556;28;20281;-50
2023/07/06 01:43:05;;;;;;;6.28;5.80;;;;;;;-144.30;65.37;84374.78;5072345;28;20288;-47
2023/07/06 01:45:32;;;;;;;6.53;5.88;;;;;;;-144.30;65.52;84370.81;5072500;28;20280;-49
2023/07/06 01:48:04;;;;;;;6.65;5.95;;;;;;;-144.30;65.44;84382.72;5072255;28;20220;-48
2023/07/06 01:50:42;;;;;;;7.03;5.85;;;;;;;-144.30;65.54;84394.66;5072131;28;20580;-47
2023/07/06 01:53:17;;;;;;;9.93;5.90;;;;;;;-144.30;65.13;84368.81;5071993;28;20207;-50
2023/07/06 01:55:49;;;;;;;6.20;5.80;;;;;;;-144.30;64.93;84398.63;5072283;28;20246;-48
2023/07/06 01:58:24;;;;;;;5.95;5.55;;;;;;;-144.30;64.74;84348.94;5072132;28;20196;-50
2023/07/06 02:00:56;;;;;;;6.97;6.57;;;;;;;-144.30;64.46;84346.97;5071919;28;20676;-47
2023/07/06 02:03:26;;;;;;;6.22;5.82;;;;;;;-144.30;64.74;84348.94;5071993;28;20207;-48
2023/07/06 02:05:54;;;;;;;7.53;6.95;;;;;;;-144.30;64.75;84366.84;5072050;28;20283;-48
2023/07/06 02:08:23;;;;;;;7.15;6.68;;;;;;;-144.30;64.85;84348.94;5071784;28;20224;-48
2023/07/06 02:10:50;;;;;;;6.45;5.88;;;;;;;-144.30;65.06;84376.78;5071883;28;20723;-48
2023/07/06 02:13:17;;;;;;;7.63;6.90;;;;;;;-144.30;65.45;84368.81;5071863;28;20698;-50
2023/07/06 02:15:45;;;;;;;6.88;6.38;;;;;;;-144.30;65.47;84410.56;5071692;28;20652;-48
2023/07/06 02:18:12;;;;;;;7.40;6.90;;;;;;;-144.30;65.46;84416.50;5072033;28;20680;-47
2023/07/06 02:20:39;;;;;;;6.63;6.10;;;;;;;-144.30;65.62;84390.69;5071603;28;20619;-50
2023/07/06 02:23:08;;;;;;;7.43;6.82;;;;;;;-144.30;65.93;84418.50;5071681;28;20565;-49
2023/07/06 02:25:35;;;;;;;6.85;6.38;;;;;;;-144.30;65.88;84333.06;5071750;28;20215;-48
2023/07/06 02:28:02;;;;;;;7.13;6.63;;;;;;;-144.30;66.32;84414.53;5071525;28;20188;-48
2023/07/06 02:30:29;;;;;;;7.78;6.95;;;;;;;-144.30;66.34;84410.56;5071468;28;20204;-48
2023/07/06 02:32:56;;;;;;;6.75;6.35;;;;;;;-144.30;66.51;84422.47;5071787;28;20200;-50
2023/07/06 02:35:23;;;;;;;7.40;6.68;;;;;;;-144.30;66.72;84414.53;5071445;28;20287;-49
2023/07/06 02:37:50;;;;;;;7.28;6.68;;;;;;;-144.30;67.14;84396.66;5071303;28;20196;-50
2023/07/06 02:40:19;;;;;;;7.00;6.40;;;;;;;-144.30;67.40;84390.69;5071450;28;20565;-49
2023/07/06 02:42:45;;;;;;;7.45;6.90;;;;;;;-144.30;67.33;84422.47;5071132;28;20200;-50
2023/07/06 02:45:12;;;;;;;8.13;7.35;;;;;;;-144.30;67.24;84418.50;5071265;28;20206;-50
2023/07/06 02:47:40;;;;;;;7.75;7.15;;;;;;;-144.30;67.46;84414.53;5071602;28;20200;-48
2023/07/06 02:50:10;;;;;;;7.80;7.25;;;;;;;-144.30;67.38;84436.38;5070882;28;20222;-48
2023/07/06 02:52:37;;;;;;;7.63;6.72;;;;;;;-144.30;67.36;84408.56;5071639;28;20676;-49
2023/07/06 02:55:05;;;;;;;7.75;7.05;;;;;;;-144.30;67.63;84408.56;5071698;28;20203;-51
2023/07/06 02:57:34;;;;;;;7.70;7.10;;;;;;;-144.30;67.38;84412.53;5071143;28;20188;-48
2023/07/06 03:00:00;;;;;;;6.72;6.30;;;;;;;-144.30;67.48;84432.41;5070756;28;20222;-48
2023/07/06 03:02:27;;;;;;;7.65;7.00;;;;;;;-144.30;67.34;84410.56;5071275;28;20200;-48
2023/07/06 03:04:55;;;;;;;7.78;7.25;;;;;;;-144.30;67.46;84416.50;5070896;28;20570;-49
2023/07/06 03:07:23;;;;;;;8.43;7.50;;;;;;;-144.30;67.38;84418.50;5071037;28;20227;-49
2023/07/06 03:09:49;;;;;;;8.10;7.35;;;;;;;-144.30;67.41;84352.91;5053714;28;20221;-50
2023/07/06 03:12:16;;;;;;;8.15;7.40;;;;;;;-144.30;67.50;84400.63;5030757;28;20198;-50
2023/07/06 03:14:46;;;;;;;7.82;7.13;;;;;;;-144.30;67.27;84406.59;5042652;28;20196;-50
2023/07/06 03:17:14;;;;;;;8.07;7.28;;;;;;;-144.30;66.98;84346.97;5042163;28;20220;-47
2023/07/06 03:19:41;;;;;;;8.50;7.70;;;;;;;-144.30;66.76;84358.88;5039008;28;20236;-48
2023/07/06 03:22:10;;;;;;;8.63;7.95;;;;;;;-144.30;66.31;84354.91;5040902;28;20205;-49
2023/07/06 03:24:38;;;;;;;7.50;7.00;;;;;;;-144.30;66.08;84388.69;5040999;28;20255;-50
2023/07/06 03:27:05;;;;;;;11.40;7.03;;;;;;;-144.30;65.81;84352.91;5039617;28;20713;-50
2023/07/06 03:29:35;;;;;;;14.23;7.40;;;;;;;-144.30;65.59;84331.06;5040121;28;20700;-48
2023/07/06 03:32:05;;;;;;;7.45;6.85;;;;;;;-144.30;65.26;84350.94;5043212;28;20200;-49
2023/07/06 03:34:32;;;;;;;9.90;7.13;;;;;;;-144.30;64.91;84311.19;5031020;28;20348;-49
2023/07/06 03:36:59;;;;;;;8.18;7.43;;;;;;;-144.30;64.42;84295.28;5030887;28;20921;-49
2023/07/06 03:39:26;;;;;;;8.18;7.47;;;;;;;-144.30;64.12;84259.50;5036569;28;20204;-50
2023/07/06 03:41:53;;;;;;;8.10;7.15;;;;;;;-144.30;63.48;84255.53;5038452;28;20200;-50
2023/07/06 03:44:21;;;;;;;8.63;7.72;;;;;;;-144.30;63.20;84213.81;5035392;28;20587;-51
2023/07/06 03:46:48;;;;;;;8.68;7.57;;;;;;;-144.30;62.25;84180.03;5032131;28;20221;-49
2023/07/06 03:49:18;;;;;;;8.27;6.72;;;;;;;-144.30;61.69;84166.13;5040076;28;20270;-49
2023/07/06 03:51:46;;;;;;;8.52;7.22;;;;;;;-144.30;61.12;84187.97;5046734;28;20197;-47
2023/07/06 03:54:13;;;;;;;7.40;6.68;;;;;;;-144.30;60.76;84178.03;5036805;28;20205;-49
2023/07/06 03:56:40;;;;;;;6.95;6.45;;;;;;;-144.30;59.47;84086.63;5045113;28;20291;-50
2023/07/06 03:59:07;;;;;;;7.20;6.50;;;;;;;-144.30;56.08;83917.72;5050097;28;20192;-51
2023/07/06 04:01:35;;;;;;;7.55;6.85;;;;;;;-144.30;51.88;83659.41;5049694;28;20196;-51
2023/07/06 04:04:05;;;;;;;6.72;6.20;;;;;;;-144.30;47.99;83438.88;5049620;28;20263;-52
2023/07/06 04:06:41;;;;;;;7.93;6.35;;;;;;;-144.30;45.05;83242.19;5049850;28;20231;-51
2023/07/06 04:09:10;;;;;;;6.70;6.05;;;;;;;-144.30;43.38;83025.63;5050022;28;20680;-51
2023/07/06 04:11:37;;;;;;;7.22;6.50;;;;;;;-144.30;41.30;82801.16;5049612;28;20258;-51
2023/07/06 04:14:04;;;;;;;6.72;6.28;;;;;;;-144.30;39.43;82674.03;5048957;28;20201;-50
2023/07/06 04:16:31;;;;;;;6.72;6.32;;;;;;;-144.30;38.52;82525.06;5041128;28;20203;-51
2023/07/06 04:18:59;;;;;;;7.63;7.03;;;;;;;-144.30;37.08;82322.47;5039657;28;20224;-51
2023/07/06 04:21:26;;;;;;;5.57;5.18;;;;;;;-144.30;36.24;82109.94;5039488;28;20690;-50
2023/07/06 04:23:55;;;;;;;6.53;6.18;;;;;;;-144.30;35.25;81943.13;5037878;28;20205;-51
2023/07/06 04:26:24;;;;;;;6.97;6.03;;;;;;;-144.30;34.72;81885.53;5038484;28;20708;-50
2023/07/06 04:28:51;;;;;;;6.53;6.00;;;;;;;-144.30;34.00;81708.78;5037870;28;20220;-50
2023/07/06 04:31:18;;;;;;;6.00;5.60;;;;;;;-144.30;33.41;81581.69;5042819;28;20583;-51
2023/07/06 04:33:45;;;;;;;6.15;5.65;;;;;;;-144.30;33.09;81452.63;5038890;28;20197;-51
2023/07/06 04:36:13;;;;;;;6.50;5.90;;;;;;;-144.30;32.39;81395.03;5037775;28;20195;-50
2023/07/06 04:38:41;;;;;;;6.45;5.85;;;;;;;-144.30;32.21;81287.81;5037558;28;20197;-51
2023/07/06 04:41:12;;;;;;;6.95;5.38;;;;;;;-144.30;31.66;81101.19;5038193;28;20197;-50
2023/07/06 04:43:39;;;;;;;5.32;5.00;;;;;;;-144.30;30.86;80882.78;5037681;28;20287;-51
2023/07/06 04:46:06;;;;;;;5.47;5.18;;;;;;;-144.30;30.57;80803.38;5036242;28;20227;-51
2023/07/06 04:48:34;;;;;;;5.68;5.15;;;;;;;-144.30;30.52;80916.53;5041314;28;20207;-51
2023/07/06 04:51:01;;;;;;;5.88;5.47;;;;;;;-144.30;30.28;80741.84;5039198;28;20220;-52
2023/07/06 04:53:28;;;;;;;6.88;5.20;;;;;;;-144.30;29.54;80513.53;5029044;28;20240;-50
2023/07/06 04:55:56;;;;;;;5.78;4.82;;;;;;;-144.30;29.42;80418.25;5029014;28;20207;-51
2023/07/06 04:58:25;;;;;;;5.50;4.97;;;;;;;-144.30;29.27;80354.72;5028223;28;20200;-51
2023/07/06 05:00:52;;;;;;;5.65;5.22;;;;;;;-144.30;29.04;80279.28;5029037;28;20580;-49
2023/07/06 05:03:19;;;;;;;5.60;5.13;;;;;;;-144.30;28.74;80225.72;5029270;28;20280;-51
2023/07/06 05:05:47;;;;;;;6.65;5.82;;;;;;;-144.30;28.75;80160.19;5029106;28;20200;-50
2023/07/06 05:08:16;;;;;;;5.60;5.20;;;;;;;-144.30;28.05;79886.28;5028940;28;20207;-51
2023/07/06 05:10:46;;;;;;;6.05;5.18;;;;;;;-144.30;27.70;79834.69;5029354;28;20283;-50
2023/07/06 05:13:13;;;;;;;6.03;5.45;;;;;;;-144.30;28.40;80092.72;5028790;28;20209;-51
2023/07/06 05:15:42;;;;;;;8.48;6.38;;;;;;;-144.30;28.58;80237.63;5034256;28;20207;-51
2023/07/06 05:18:09;;;;;;;7.68;5.55;;;;;;;-144.30;28.41;79961.72;5028679;28;20193;-52
2023/07/06 05:20:36;;;;;;;9.38;5.60;;;;;;;-144.30;28.45;80154.25;5028730;28;20615;-50
2023/07/06 05:23:05;;;;;;;9.02;5.47;;;;;;;-144.30;28.20;80172.09;5028459;28;20203;-50
2023/07/06 05:25:33;;;;;;;6.82;5.18;;;;;;;-144.30;28.86;80315.03;5028707;28;20636;-52
2023/07/06 05:28:00;;;;;;;27.38;6.50;;;;;;;-144.30;28.53;80223.72;5028680;28;20680;-50
2023/07/06 05:30:27;;;;;;;20.83;6.18;;;;;;;-144.30;28.83;80273.34;5028635;28;20311;-52
2023/07/06 05:32:55;;;;;;;13.98;6.32;;;;;;;-144.30;28.26;80120.50;5028394;28;20204;-50
2023/07/06 05:35:24;;;;;;;14.18;5.90;;;;;;;-144.30;27.98;79979.59;5028719;28;20715;-51
2023/07/06 05:37:51;;;;;;;16.13;6.78;;;;;;;-144.30;28.15;79941.88;5028804;28;20204;-51
2023/07/06 05:40:18;;;;;;;6.78;6.20;;;;;;;-144.30;27.96;80053.03;5028573;28;20596;-50
2023/07/06 05:42:45;;;;;;;16.27;7.25;;;;;;;-144.30;28.20;80045.09;5030512;28;20873;-50
2023/07/06 05:45:12;;;;;;;7.53;6.90;;;;;;;-144.30;28.05;80037.13;5044323;28;20200;-49
2023/07/06 05:47:39;;;;;;;18.30;10.27;;;;;;;-144.30;28.21;80130.44;5038586;28;20292;-50
2023/07/06 05:50:09;;;;;;;5.82;5.30;;;;;;;-144.30;28.02;80084.78;5039824;28;20243;-50
2023/07/06 05:52:36;;;;;;;10.10;8.60;;;;;;;-144.30;28.34;80108.59;5045694;28;20212;-51
2023/07/06 05:55:03;;;;;;;15.00;9.98;;;;;;;-144.30;28.50;80031.19;5037112;28;20192;-51
2023/07/06 05:57:30;;;;;;;6.43;5.30;;;;;;;-144.30;28.24;80108.59;5038809;28;20196;-50
2023/07/06 05:59:58;;;;;;;7.97;7.38;;;;;;;-144.30;28.29;80039.13;5037013;28;20228;-50
2023/07/06 06:02:26;;;;;;;5.85;5.35;;;;;;;-144.30;28.25;80025.22;5037441;28;20200;-52
2023/07/06 06:04:53;;;;;;;5.57;5.28;;;;;;;-144.30;28.77;80132.41;5044880;28;20647;-50
2023/07/06 06:07:22;;;;;;;13.23;7.20;;;;;;;-144.30;28.56;79995.47;5048127;28;20222;-51
2023/07/06 06:09:49;;;;;;;6.45;5.90;;;;;;;-144.30;28.66;79967.66;5050758;28;20226;-49
2023/07/06 06:12:19;;;;;;;7.22;6.60;;;;;;;-144.30;28.17;79890.25;5052268;28;20200;-49
2023/07/06 06:14:47;;;;;;;10.90;5.82;;;;;;;-144.30;28.87;80338.84;5049480;28;20246;-51
2023/07/06 06:17:16;;;;;;;6.72;5.30;;;;;;;-144.30;29.62;80505.59;5050571;28;20200;-50
2023/07/06 06:19:45;;;;;;;5.95;5.40;;;;;;;-144.30;29.60;80410.31;5051870;28;20240;-51
2023/07/06 06:22:13;;;;;;;7.03;6.22;;;;;;;-144.30;29.40;80307.09;5051394;28;20262;-50
2023/07/06 06:24:42;;;;;;;6.57;6.22;;;;;;;-144.30;29.05;80241.59;5051602;28;20239;-51
2023/07/06 06:27:12;;;;;;;6.32;5.72;;;;;;;-144.30;29.15;80319.00;5051651;28;20225;-51
2023/07/06 06:29:39;;;;;;;9.48;5.78;;;;;;;-144.30;29.59;80144.31;5051696;28;20223;-51
2023/07/06 06:32:07;;;;;;;6.60;6.07;;;;;;;-144.30;29.95;80622.72;5051376;28;20727;-51
2023/07/06 06:34:34;;;;;;;5.53;5.13;;;;;;;-144.30;30.73;80829.19;5042006;28;20207;-52
2023/07/06 06:37:03;;;;;;;6.20;5.70;;;;;;;-144.30;31.43;81047.56;5031064;28;20207;-51
2023/07/06 06:39:30;;;;;;;7.75;7.25;;;;;;;-144.30;31.49;81041.63;5031640;28;20594;-51
2023/07/06 06:42:00;;;;;;;11.30;7.45;;;;;;;-144.30;31.57;81015.81;5031290;28;20193;-51
2023/07/06 06:44:28;;;;;;;9.80;7.10;;;;;;;-144.30;31.69;81105.16;5033766;28;20203;-50
2023/07/06 06:46:56;;;;;;;6.88;6.38;;;;;;;-144.30;32.00;81146.84;5044854;28;20211;-52
2023/07/06 06:49:23;;;;;;;7.15;6.45;;;;;;;-144.30;32.20;81295.75;5041185;28;20192;-52
2023/07/06 06:51:50;;;;;;;6.88;5.55;;;;;;;-144.30;32.67;81311.66;5041661;28;20197;-51
2023/07/06 06:54:17;;;;;;;10.20;6.28;;;;;;;-144.30;32.17;81164.72;5040206;28;20189;-49
2023/07/06 06:56:44;;;;;;;6.53;5.82;;;;;;;-144.30;32.66;81450.66;5041006;28;20259;-50
2023/07/06 06:59:13;;;;;;;8.57;5.93;;;;;;;-144.30;32.88;81462.56;5041511;28;20197;-50
2023/07/06 07:01:41;;;;;;;6.95;6.22;;;;;;;-144.30;32.61;81395.03;5040100;28;20228;-50
2023/07/06 07:04:09;;;;;;;10.65;5.82;;;;;;;-144.30;32.61;81627.38;5042460;28;20242;-50
2023/07/06 07:06:38;;;;;;;8.35;6.30;;;;;;;-144.30;32.72;81377.16;5051197;28;20756;-51
2023/07/06 07:09:09;;;;;;;5.78;5.38;;;;;;;-144.30;32.98;81387.09;5047542;28;20300;-50
2023/07/06 07:11:36;;;;;;;8.10;6.88;;;;;;;-144.30;32.89;81351.34;5036753;28;20224;-51
2023/07/06 07:14:03;;;;;;;7.07;5.97;;;;;;;-144.30;32.80;81476.47;5030599;28;20243;-50
2023/07/06 07:16:34;;;;;;;9.57;6.68;;;;;;;-144.30;32.78;81440.72;5030913;28;20207;-52
2023/07/06 07:19:01;;;;;;;6.22;5.82;;;;;;;-144.30;32.47;81305.69;5030843;28;20750;-51
2023/07/06 07:21:28;;;;;;;7.88;5.70;;;;;;;-144.30;32.62;81331.50;5029927;28;20357;-49
2023/07/06 07:23:55;;;;;;;6.15;5.75;;;;;;;-144.30;32.05;81295.75;5030719;28;20200;-50
2023/07/06 07:26:24;;;;;;;7.82;6.60;;;;;;;-144.30;32.31;81281.88;5033547;28;20188;-51
2023/07/06 07:28:51;;;;;;;6.80;6.40;;;;;;;-144.30;31.74;81331.50;5040290;28;20196;-51
2023/07/06 07:31:20;;;;;;;8.82;6.22;;;;;;;-144.30;32.17;81424.81;5041104;28;20219;-50
2023/07/06 07:33:49;;;;;;;6.85;6.15;;;;;;;-144.30;32.51;81488.38;5039742;28;20193;-50
2023/07/06 07:36:18;;;;;;;8.45;5.97;;;;;;;-144.30;32.56;81399.00;5050480;28;20291;-51
2023/07/06 07:38:46;;;;;;;8.18;7.50;;;;;;;-144.30;32.07;81335.47;5050561;28;20704;-50
2023/07/06 07:41:18;;;;;;;7.10;5.95;;;;;;;-144.30;32.20;81307.69;5050006;28;20568;-50
2023/07/06 07:43:46;;;;;;;9.55;6.30;;;;;;;-144.30;32.07;81442.69;5050611;28;20676;-50
2023/07/06 07:46:16;;;;;;;6.35;5.75;;;;;;;-144.30;32.11;81375.19;5050392;28;20594;-50
2023/07/06 07:48:45;;;;;;;6.57;5.97;;;;;;;-144.30;31.81;81353.34;5050398;28;20702;-51
2023/07/06 07:51:16;;;;;;;8.95;5.68;;;;;;;-144.30;32.18;81490.34;5037771;28;20596;-50
2023/07/06 07:53:44;;;;;;;6.43;5.88;;;;;;;-144.30;32.14;81541.97;5030209;28;20692;-51
2023/07/06 07:56:15;;;;;;;12.27;6.07;;;;;;;-144.30;31.93;81514.19;5032517;28;20201;-51
2023/07/06 07:58:44;;;;;;;6.57;6.03;;;;;;;-144.30;31.98;81448.66;5030371;28;20201;-48
2023/07/06 08:01:13;;;;;;;30.70;8.90;;;;;;;-144.30;32.43;81541.97;5029801;28;20267;-48
2023/07/06 08:03:40;;;;;;;7.55;6.43;;;;;;;-144.30;31.86;81430.78;5030287;28;20193;-50
2023/07/06 08:06:08;;;;;;;10.05;6.57;;;;;;;-144.30;31.62;81250.09;5038792;28;20198;-49
2023/07/06 08:08:38;;;;;;;6.90;6.20;;;;;;;-144.30;30.88;81164.72;5040366;28;20193;-49
2023/07/06 08:11:07;;;;;;;11.23;5.85;;;;;;;-144.30;30.86;81132.94;5038763;28;20281;-50
2023/07/06 08:13:34;;;;;;;6.55;5.72;;;;;;;-144.30;30.33;81057.50;5038596;28;20287;-53
2023/07/06 08:16:02;;;;;;;9.68;6.53;;;;;;;-144.30;30.08;80916.53;5043468;28;20224;-50
2023/07/06 08:18:30;;;;;;;7.30;6.55;;;;;;;-144.30;30.13;80954.25;5030222;28;20201;-49
2023/07/06 08:20:58;;;;;;;8.02;6.07;;;;;;;-144.30;29.96;80962.19;5036211;28;20214;-49
2023/07/06 08:23:27;;;;;;;11.93;5.90;;;;;;;-144.30;29.98;80835.13;5049499;28;20203;-51
2023/07/06 08:25:57;;;;;;;11.40;6.47;;;;;;;-144.30;29.62;80783.53;5048999;28;20193;-50
2023/07/06 08:28:30;;;;;;;6.18;5.75;;;;;;;-144.30;29.19;80608.81;5049672;28;20291;-50
2023/07/06 08:31:01;;;;;;;6.93;5.93;;;;;;;-144.30;28.88;80477.81;5049171;28;20224;-49
2023/07/06 08:33:30;;;;;;;6.82;5.57;;;;;;;-144.30;29.12;80626.69;5049259;28;20207;-49
2023/07/06 08:35:57;;;;;;;6.55;6.05;;;;;;;-144.30;29.29;80743.81;5049458;28;20639;-51
2023/07/06 08:38:24;;;;;;;7.97;7.00;;;;;;;-144.30;29.74;80841.09;5050199;28;20225;-50
2023/07/06 08:40:52;;;;;;;8.43;6.80;;;;;;;-144.30;29.94;80795.44;5050312;28;20206;-48
2023/07/06 08:43:24;;;;;;;9.13;6.53;;;;;;;-144.30;30.21;80837.13;5048177;28;20748;-50
2023/07/06 08:45:56;;;;;;;9.07;7.03;;;;;;;-144.30;30.61;81037.66;5028491;28;20204;-50
2023/07/06 08:48:26;;;;;;;6.93;6.30;;;;;;;-144.30;30.96;81033.69;5029471;28;20673;-50
2023/07/06 08:50:56;;;;;;;6.60;6.00;;;;;;;-144.30;31.09;81164.72;5029150;28;20221;-49
2023/07/06 08:53:32;;;;;;;6.63;6.05;;;;;;;-144.30;31.24;81140.91;5029301;28;20200;-50
2023/07/06 08:56:03;;;;;;;8.45;6.55;;;;;;;-144.30;31.35;81206.41;5028748;28;20200;-49
2023/07/06 08:58:33;;;;;;;6.47;5.88;;;;;;;-144.30;31.18;81351.34;5029141;28;20201;-48
2023/07/06 09:01:10;;;;;;;6.82;6.25;;;;;;;-144.30;32.63;81617.44;5028958;28;20291;-49
2023/07/06 09:03:44;;;;;;;7.25;6.30;;;;;;;-144.30;32.88;81661.13;5028835;28;20201;-50
2023/07/06 09:06:14;;;;;;;7.57;6.82;;;;;;;-144.30;32.63;81581.69;5028527;28;20197;-49
2023/07/06 09:08:45;;;;;;;7.50;7.00;;;;;;;-144.30;32.47;81530.06;5028777;28;20289;-49
2023/07/06 09:11:12;;;;;;;7.07;6.53;;;;;;;-144.30;32.22;81488.38;5028758;28;20708;-51
2023/07/06 09:13:49;;;;;;;6.32;5.65;;;;;;;-144.30;32.34;81484.41;5028776;28;20200;-51
2023/07/06 09:16:19;;;;;;;7.50;5.97;;;;;;;-144.30;32.10;81524.13;5028907;28;20205;-50
2023/07/06 09:18:46;;;;;;;7.63;6.00;;;;;;;-144.30;31.52;81454.63;5028957;28;20241;-49
2023/07/06 09:21:14;;;;;;;5.85;5.45;;;;;;;-144.30;31.86;81645.25;5028471;28;20683;-50
2023/07/06 09:23:45;;;;;;;6.55;6.05;;;;;;;-144.30;31.74;81629.34;5028845;28;20227;-51
2023/07/06 09:26:24;;;;;;;6.60;6.00;;;;;;;-144.30;31.90;81553.91;5028540;28;20595;-50
2023/07/06 09:29:12;;;;;;;9.98;6.07;;;;;;;-144.30;31.86;81649.22;5028843;28;20204;-50
2023/07/06 09:31:39;;;;;;;6.45;5.88;;;;;;;-144.30;31.78;81621.41;5028712;28;20319;-49
2023/07/06 09:34:10;;;;;;;6.38;5.80;;;;;;;-144.30;32.10;81696.88;5028522;28;20217;-50
2023/07/06 09:36:37;;;;;;;5.75;5.32;;;;;;;-144.30;31.98;81714.75;5028542;28;20204;-51
2023/07/06 09:39:05;;;;;;;6.07;5.68;;;;;;;-144.30;31.40;81635.31;5028322;28;20283;-50
2023/07/06 09:41:32;;;;;;;5.90;5.60;;;;;;;-144.30;30.86;81665.09;5028502;28;20193;-49
2023/07/06 09:44:03;;;;;;;5.90;5.50;;;;;;;-144.30;31.52;81752.47;5030238;28;20288;-50
2023/07/06 09:46:34;;;;;;;6.68;6.07;;;;;;;-144.30;31.07;81657.16;5032790;28;20517;-50
2023/07/06 09:49:01;;;;;;;6.15;5.72;;;;;;;-144.30;30.89;81681.00;5032247;28;20296;-51
2023/07/06 09:51:36;;;;;;;5.45;5.03;;;;;;;-144.30;30.45;81661.13;5032624;28;20279;-50
2023/07/06 09:54:07;;;;;;;6.05;5.55;;;;;;;-144.30;30.62;81633.31;5032114;28;20203;-50
2023/07/06 09:56:34;;;;;;;6.38;5.80;;;;;;;-144.30;30.64;81704.81;5032122;28;20200;-49
2023/07/06 09:59:04;;;;;;;6.40;5.80;;;;;;;-144.30;30.83;81708.78;5047930;28;20228;-50
2023/07/06 10:01:39;;;;;;;6.93;5.10;;;;;;;-144.30;30.29;81716.72;5052601;28;20193;-50
2023/07/06 10:04:37;;;;;;;6.07;5.60;;;;;;;-144.30;30.86;81776.31;5051914;28;20200;-50
2023/07/06 10:07:16;;;;;;;6.25;5.80;;;;;;;-144.30;30.77;81764.38;5048039;28;20193;-49
2023/07/06 10:09:51;;;;;;;11.73;5.75;;;;;;;-144.30;31.20;81818.00;5052131;28;20283;-49
2023/07/06 10:12:27;;;;;;;5.35;5.05;;;;;;;-144.30;30.49;81857.72;5051876;28;20223;-49
2023/07/06 10:14:55;;;;;;;7.22;5.65;;;;;;;-144.30;31.23;81893.47;5051905;28;20200;-50
2023/07/06 10:17:37;;;;;;;6.07;5.25;;;;;;;-144.30;30.42;81943.13;5051700;28;20200;-49
2023/07/06 10:20:17;;;;;;;5.03;4.72;;;;;;;-144.30;30.38;82022.56;5051609;28;20247;-49
2023/07/06 10:22:57;;;;;;;5.38;4.95;;;;;;;-144.30;30.86;81925.25;5051990;28;20630;-50
2023/07/06 10:25:28;;;;;;;5.40;5.10;;;;;;;-144.30;31.83;82189.38;5051802;28;20204;-51
2023/07/06 10:28:03;;;;;;;6.03;5.47;;;;;;;-144.30;32.42;82245.00;5051447;28;20196;-50
2023/07/06 10:30:35;;;;;;;6.90;5.20;;;;;;;-144.30;32.76;82342.31;5052030;28;20692;-49
2023/07/06 10:33:06;;;;;;;6.20;5.80;;;;;;;-144.30;32.99;82320.47;5043296;28;20201;-48
2023/07/06 10:35:37;;;;;;;6.53;6.03;;;;;;;-144.30;32.61;82290.69;5036002;28;20205;-49
2023/07/06 10:38:06;;;;;;;7.18;6.53;;;;;;;-144.30;33.15;82340.34;5046773;28;20653;-49
2023/07/06 10:40:35;;;;;;;19.00;7.75;;;;;;;-144.30;34.04;82368.13;5043091;28;20208;-50
2023/07/06 10:43:23;;;;;;;10.75;6.40;;;;;;;-144.30;32.97;82443.63;5039888;28;20198;-49
2023/07/06 10:45:54;;;;;;;16.02;5.97;;;;;;;-144.30;33.38;82407.88;5037886;28;20252;-49
2023/07/06 10:48:30;;;;;;;7.13;6.05;;;;;;;-144.30;34.10;82378.06;5039870;28;20201;-50
2023/07/06 10:51:20;;;;;;;7.32;6.63;;;;;;;-144.30;33.65;82401.91;5039821;28;20220;-50
2023/07/06 10:54:02;;;;;;;6.78;6.20;;;;;;;-144.30;34.33;82519.09;5036059;28;20225;-49
2023/07/06 10:56:30;;;;;;;8.82;6.40;;;;;;;-144.30;34.85;82538.97;5040127;28;20198;-50
2023/07/06 10:59:00;;;;;;;9.93;6.85;;;;;;;-144.30;34.56;82519.09;5039494;28;20215;-50
2023/07/06 11:01:37;;;;;;;13.07;7.22;;;;;;;-144.30;34.41;82445.59;5038791;28;20189;-49
2023/07/06 11:04:44;;;;;;;7.80;6.28;;;;;;;-144.30;33.67;82495.25;5042914;28;20192;-48
2023/07/06 11:07:13;;;;;;;6.05;5.55;;;;;;;-144.30;33.70;82511.16;5039767;28;20531;-49
2023/07/06 11:09:50;;;;;;;6.80;6.20;;;;;;;-144.30;33.98;82467.44;5041287;28;20208;-48
2023/07/06 11:12:19;;;;;;;6.55;6.15;;;;;;;-144.30;33.67;82515.13;5040995;28;20224;-49
2023/07/06 11:14:48;;;;;;;9.25;5.68;;;;;;;-144.30;33.50;82529.03;5039552;28;20194;-49
2023/07/06 11:17:35;;;;;;;6.30;5.75;;;;;;;-144.30;33.66;82521.09;5039149;28;20220;-49
2023/07/06 11:20:09;;;;;;;6.00;5.60;;;;;;;-144.30;33.86;82511.16;5040993;28;20231;-49
2023/07/06 11:22:39;;;;;;;8.50;5.90;;;;;;;-144.30;33.78;82542.94;5040816;28;20665;-48
2023/07/06 11:25:06;;;;;;;6.38;5.88;;;;;;;-144.30;33.70;82463.47;5038864;28;20208;-50
2023/07/06 11:27:36;;;;;;;8.45;5.82;;;;;;;-144.30;33.34;82487.31;5039036;28;20193;-50
2023/07/06 11:30:13;;;;;;;6.60;5.85;;;;;;;-144.30;32.96;82465.47;5043584;28;20208;-48